createdAt,value
2017-09-05T00:01:32.748Z,17.00
2017-09-05T00:06:35.986Z,16.70
2017-09-05T00:11:40.060Z,16.60
2017-09-05T00:16:43.262Z,16.60
2017-09-05T00:37:43.692Z,16.60
2017-09-05T00:42:46.895Z,16.60
2017-09-05T00:47:50.092Z,16.50
2017-09-05T00:52:53.292Z,16.60
2017-09-05T00:57:56.514Z,16.60
2017-09-05T01:02:59.734Z,16.70
2017-09-05T01:08:02.937Z,16.70
2017-09-05T01:13:06.137Z,16.60
2017-09-05T01:18:09.343Z,16.50
2017-09-05T01:23:12.550Z,16.40
2017-09-05T01:28:15.761Z,16.30
2017-09-05T01:33:18.973Z,16.40
2017-09-05T01:38:22.182Z,16.30
2017-09-05T01:43:25.492Z,16.30
2017-09-05T01:48:28.691Z,16.10
2017-09-05T01:53:31.897Z,16.00
2017-09-05T01:58:35.112Z,15.90
2017-09-05T02:03:38.336Z,15.70
2017-09-05T02:08:41.539Z,15.70
2017-09-05T02:13:44.760Z,15.60
2017-09-05T02:18:47.971Z,15.50
2017-09-05T02:23:51.187Z,15.30
2017-09-05T02:28:54.408Z,15.40
2017-09-05T02:33:57.626Z,15.40
2017-09-05T02:39:00.851Z,15.30
2017-09-05T02:44:04.079Z,15.30
2017-09-05T02:49:07.289Z,15.40
2017-09-05T02:54:10.515Z,15.30
2017-09-05T02:59:13.688Z,15.30
2017-09-05T03:04:16.908Z,15.40
2017-09-05T03:09:20.087Z,15.40
2017-09-05T03:14:23.333Z,15.40
2017-09-05T03:19:26.534Z,15.30
2017-09-05T03:24:29.753Z,15.30
2017-09-05T03:29:32.968Z,15.40
2017-09-05T03:34:36.183Z,15.40
2017-09-05T03:39:39.407Z,15.40
2017-09-05T03:44:42.626Z,15.30
2017-09-05T03:49:46.045Z,15.30
2017-09-05T03:54:49.271Z,15.20
2017-09-05T03:59:52.494Z,15.30
2017-09-05T04:04:55.703Z,15.30
2017-09-05T04:09:58.910Z,15.40
2017-09-05T04:15:02.110Z,15.40
2017-09-05T04:20:05.424Z,15.50
2017-09-05T04:25:08.627Z,15.40
2017-09-05T04:30:11.845Z,15.50
2017-09-05T04:35:15.084Z,15.50
2017-09-05T04:40:18.300Z,15.50
2017-09-05T04:45:21.511Z,15.60
2017-09-05T04:50:24.714Z,15.50
2017-09-05T04:55:27.981Z,15.40
2017-09-05T05:00:31.196Z,15.40
2017-09-05T05:05:34.420Z,15.40
2017-09-05T05:10:37.673Z,15.50
2017-09-05T05:15:40.900Z,15.60
2017-09-05T05:20:44.118Z,15.50
2017-09-05T05:25:47.340Z,15.60
2017-09-05T05:30:50.531Z,15.70
2017-09-05T05:35:53.769Z,15.60
2017-09-05T05:40:56.986Z,15.80
2017-09-05T05:46:00.327Z,15.80
2017-09-05T05:51:03.539Z,15.70
2017-09-05T05:56:06.798Z,15.80
2017-09-05T06:01:10.000Z,16.10
2017-09-05T06:06:13.254Z,16.00
2017-09-05T06:11:16.466Z,16.10
2017-09-05T06:16:19.707Z,16.40
2017-09-05T06:21:22.892Z,18.00
2017-09-05T06:26:26.139Z,18.20
2017-09-05T06:31:29.364Z,17.50
2017-09-05T06:36:32.600Z,17.20
2017-09-05T06:41:35.832Z,17.20
2017-09-05T06:46:39.035Z,18.20
2017-09-05T06:51:42.243Z,19.00
2017-09-05T06:56:45.440Z,18.40
2017-09-05T07:01:48.621Z,18.30
2017-09-05T07:06:51.856Z,18.50
2017-09-05T07:11:55.048Z,19.70
2017-09-05T07:16:58.281Z,19.00
2017-09-05T07:22:01.581Z,18.70
2017-09-05T07:27:04.792Z,18.70
2017-09-05T07:32:08.037Z,20.90
2017-09-05T07:37:11.310Z,21.40
2017-09-05T07:42:14.534Z,21.80
2017-09-05T07:47:17.774Z,20.60
2017-09-05T07:52:21.009Z,19.80
2017-09-05T07:57:24.224Z,20.60
2017-09-05T08:02:27.433Z,20.30
2017-09-05T08:07:30.641Z,19.60
2017-09-05T08:12:33.853Z,19.60
2017-09-05T08:17:37.089Z,19.30
2017-09-05T08:22:40.314Z,19.40
2017-09-05T08:27:43.603Z,19.90
2017-09-05T08:32:46.838Z,20.60
2017-09-05T08:37:50.093Z,20.70
2017-09-05T08:42:53.318Z,21.00
2017-09-05T08:47:56.631Z,20.60
2017-09-05T08:52:59.853Z,21.10
2017-09-05T08:58:03.120Z,20.70
2017-09-05T09:03:06.475Z,21.20
2017-09-05T09:08:09.792Z,21.60
2017-09-05T09:13:13.020Z,21.80
2017-09-05T09:18:16.246Z,22.30
2017-09-05T09:23:19.454Z,21.60
2017-09-05T09:28:22.625Z,21.40
2017-09-05T09:33:25.893Z,21.40
2017-09-05T09:38:29.112Z,21.70
2017-09-05T09:43:32.344Z,21.20
2017-09-05T09:48:35.557Z,20.90
2017-09-05T09:53:38.757Z,21.50
2017-09-05T09:58:42.019Z,22.10
2017-09-05T10:03:45.238Z,22.60
2017-09-05T10:08:48.585Z,22.60
2017-09-05T10:13:51.845Z,22.30
2017-09-05T10:18:55.066Z,22.30
2017-09-05T10:23:58.300Z,22.30
2017-09-05T10:29:01.522Z,22.40
2017-09-05T10:34:04.759Z,22.00
2017-09-05T10:39:07.984Z,22.40
2017-09-05T10:44:11.210Z,22.80
2017-09-05T10:49:14.480Z,22.60
2017-09-05T10:54:17.704Z,22.60
2017-09-05T10:59:20.959Z,22.70
2017-09-05T11:04:25.182Z,22.90
2017-09-05T11:09:28.416Z,23.00
2017-09-05T11:14:31.839Z,23.20
2017-09-05T11:19:35.045Z,23.10
2017-09-05T11:24:38.422Z,23.40
2017-09-05T11:29:41.689Z,23.60
2017-09-05T11:34:44.937Z,23.50
2017-09-05T11:39:48.157Z,23.60
2017-09-05T11:44:51.395Z,23.90
2017-09-05T11:49:54.581Z,24.10
2017-09-05T11:54:57.829Z,24.10
2017-09-05T12:00:01.036Z,24.50
2017-09-05T12:05:04.249Z,24.30
2017-09-05T12:10:07.474Z,24.70
2017-09-05T12:15:10.666Z,24.60
2017-09-05T12:20:14.141Z,24.10
2017-09-05T12:25:17.342Z,24.50
2017-09-05T12:30:20.730Z,24.50
2017-09-05T12:35:23.918Z,24.40
2017-09-05T12:40:27.114Z,24.40
2017-09-05T12:45:30.264Z,24.50
2017-09-05T12:50:33.600Z,24.50
2017-09-05T12:55:36.836Z,24.70
2017-09-05T13:00:40.013Z,24.40
2017-09-05T13:05:43.424Z,24.60
2017-09-05T13:10:46.634Z,25.10
2017-09-05T13:15:49.859Z,25.10
2017-09-05T13:20:53.119Z,25.20
2017-09-05T13:25:56.311Z,25.20
2017-09-05T13:30:59.785Z,25.50
2017-09-05T13:36:02.999Z,25.90
2017-09-05T13:41:06.184Z,26.00
2017-09-05T13:46:09.400Z,26.00
2017-09-05T13:51:12.599Z,25.70
2017-09-05T13:56:15.801Z,25.70
2017-09-05T14:01:19.010Z,25.60
2017-09-05T14:06:22.218Z,25.80
2017-09-05T14:11:25.435Z,26.10
2017-09-05T14:16:28.635Z,26.00
2017-09-05T14:21:31.886Z,26.30
2017-09-05T14:26:35.222Z,26.10
2017-09-05T14:31:38.454Z,26.00
2017-09-05T14:36:41.672Z,26.00
2017-09-05T14:41:44.903Z,25.60
2017-09-05T14:46:48.107Z,25.40
2017-09-05T14:51:51.313Z,25.10
2017-09-05T14:56:54.535Z,25.10
2017-09-05T15:01:57.730Z,25.20
2017-09-05T15:07:00.996Z,25.20
2017-09-05T15:12:04.216Z,25.20
2017-09-05T15:17:07.420Z,24.80
2017-09-05T15:22:10.715Z,24.60
2017-09-05T15:27:13.952Z,24.40
2017-09-05T15:32:17.137Z,24.40
2017-09-05T15:37:20.318Z,24.40
2017-09-05T15:42:23.535Z,24.30
2017-09-05T15:47:26.731Z,24.20
2017-09-05T15:52:29.938Z,24.20
2017-09-05T15:57:33.193Z,24.60
2017-09-05T16:02:36.446Z,24.60
2017-09-05T16:07:39.706Z,24.60
2017-09-05T16:12:42.931Z,24.50
2017-09-05T16:17:46.136Z,24.40
2017-09-05T16:22:49.367Z,24.30
2017-09-05T16:27:52.596Z,24.20
2017-09-05T16:32:55.863Z,24.20
2017-09-05T16:37:59.074Z,24.20
2017-09-05T16:43:02.311Z,24.10
2017-09-05T16:48:05.533Z,24.30
2017-09-05T16:53:08.744Z,24.30
2017-09-05T17:03:41.679Z,24.20
2017-09-05T17:08:44.902Z,24.20
2017-09-05T17:13:48.171Z,24.10
2017-09-05T17:18:51.486Z,24.00
2017-09-05T17:23:54.686Z,23.80
2017-09-05T17:28:57.893Z,23.60
2017-09-05T17:34:01.088Z,23.50
2017-09-05T17:39:04.266Z,23.40
2017-09-05T17:44:07.483Z,23.40
2017-09-05T17:49:10.810Z,23.30
2017-09-05T17:54:14.026Z,23.30
2017-09-05T17:59:17.262Z,23.20
2017-09-05T18:04:20.500Z,23.20
2017-09-05T18:09:23.707Z,23.00
2017-09-05T18:14:26.905Z,22.90
2017-09-05T18:19:30.132Z,22.80
2017-09-05T18:24:33.348Z,22.90
2017-09-05T18:29:36.680Z,22.80
2017-09-05T18:34:39.906Z,22.70
2017-09-05T18:39:43.201Z,22.70
2017-09-05T18:44:46.426Z,22.60
2017-09-05T18:49:49.667Z,22.60
2017-09-05T18:54:52.987Z,22.40
2017-09-05T18:59:56.501Z,22.30
2017-09-05T19:05:00.013Z,22.20
2017-09-05T19:10:03.427Z,22.40
2017-09-05T19:15:06.826Z,22.40
2017-09-05T19:20:10.120Z,22.30
2017-09-05T19:25:13.352Z,22.10
2017-09-05T19:30:16.663Z,21.90
2017-09-05T19:35:19.882Z,21.70
2017-09-05T19:40:23.130Z,21.50
2017-09-05T19:45:26.357Z,21.50
2017-09-05T19:50:29.582Z,21.50
2017-09-05T19:55:32.800Z,21.50
2017-09-05T20:00:36.008Z,21.50
2017-09-05T20:05:39.304Z,21.60
2017-09-05T20:10:42.519Z,21.60
2017-09-05T20:15:45.732Z,21.50
2017-09-05T20:20:48.975Z,21.40
2017-09-05T20:25:52.227Z,21.30
2017-09-05T20:30:55.495Z,21.30
2017-09-05T20:35:58.754Z,21.20
2017-09-05T20:41:01.916Z,21.10
2017-09-05T20:46:05.167Z,21.00
2017-09-05T20:51:08.428Z,20.90
2017-09-05T20:56:11.656Z,20.90
2017-09-05T21:01:14.885Z,20.90
2017-09-05T21:06:18.146Z,20.80
2017-09-05T21:11:21.365Z,20.90
2017-09-05T21:16:25.450Z,20.60
2017-09-05T21:21:28.902Z,20.50
2017-09-05T21:26:32.200Z,20.40
2017-09-05T21:31:35.409Z,20.30
2017-09-05T21:36:38.683Z,20.20
2017-09-05T21:41:41.918Z,20.20
2017-09-05T21:46:45.134Z,20.20
2017-09-05T21:51:48.336Z,20.00
2017-09-05T21:56:51.579Z,19.90
2017-09-05T22:01:54.799Z,20.00
2017-09-05T22:06:58.041Z,20.00
2017-09-05T22:12:01.267Z,19.80
2017-09-05T22:17:04.471Z,19.70
2017-09-05T22:22:07.673Z,19.60
2017-09-05T22:27:16.490Z,19.60
2017-09-05T22:32:19.714Z,19.60
2017-09-05T22:37:22.947Z,19.40
2017-09-05T22:42:26.137Z,19.40
2017-09-05T22:47:29.385Z,19.40
2017-09-05T22:52:32.615Z,19.40
2017-09-05T22:57:35.825Z,19.50
2017-09-05T23:02:39.042Z,19.50
2017-09-05T23:07:42.206Z,19.40
2017-09-05T23:12:45.414Z,19.40
2017-09-05T23:17:48.597Z,19.30
2017-09-05T23:22:51.834Z,19.30
2017-09-05T23:27:55.022Z,19.10
2017-09-05T23:32:58.235Z,19.00
2017-09-05T23:38:01.438Z,19.20
2017-09-05T23:43:04.642Z,19.20
2017-09-05T23:48:07.893Z,18.90
2017-09-05T23:53:11.142Z,18.70
2017-09-05T23:58:14.339Z,18.70
